createdAt,value
2018-09-04T00:01:47.243Z,82.07
2018-09-04T00:04:14.801Z,82.64
2018-09-04T00:06:42.387Z,82.47
2018-09-04T00:09:10.551Z,82.60
2018-09-04T00:11:38.081Z,82.94
2018-09-04T00:14:06.043Z,82.62
2018-09-04T00:16:33.586Z,82.74
2018-09-04T00:19:01.145Z,82.39
2018-09-04T00:21:28.674Z,82.66
2018-09-04T00:23:56.210Z,82.37
2018-09-04T00:26:24.018Z,82.25
2018-09-04T00:28:51.570Z,82.03
2018-09-04T00:31:19.116Z,82.15
2018-09-04T00:33:46.650Z,82.15
2018-09-04T00:36:14.306Z,82.11
2018-09-04T00:38:41.881Z,81.68
2018-09-04T00:41:09.796Z,81.63
2018-09-04T00:43:37.319Z,82.17
2018-09-04T00:46:04.822Z,81.38
2018-09-04T00:48:32.630Z,81.12
2018-09-04T00:51:00.217Z,81.30
2018-09-04T00:53:27.753Z,81.40
2018-09-04T00:55:55.329Z,81.55
2018-09-04T00:58:22.882Z,82.03
2018-09-04T01:00:50.430Z,81.69
2018-09-04T01:03:17.939Z,82.34
2018-09-04T01:05:45.563Z,82.62
2018-09-04T01:08:13.197Z,82.73
2018-09-04T01:10:40.710Z,82.99
2018-09-04T01:13:08.259Z,84.16
2018-09-04T01:15:35.832Z,84.54
2018-09-04T01:18:03.414Z,83.45
2018-09-04T01:20:32.198Z,83.04
2018-09-04T01:22:59.726Z,83.49
2018-09-04T01:25:27.339Z,83.80
2018-09-04T01:27:54.891Z,84.33
2018-09-04T01:30:22.461Z,84.57
2018-09-04T01:32:49.988Z,84.89
2018-09-04T01:35:17.522Z,83.92
2018-09-04T01:37:45.048Z,83.91
2018-09-04T01:40:12.569Z,83.94
2018-09-04T01:42:40.145Z,83.63
2018-09-04T01:45:07.678Z,83.30
2018-09-04T01:47:35.218Z,83.03
2018-09-04T01:50:02.786Z,83.57
2018-09-04T01:52:30.305Z,83.40
2018-09-04T01:54:57.874Z,84.18
2018-09-04T01:57:25.385Z,84.90
2018-09-04T01:59:52.911Z,85.03
2018-09-04T02:02:20.449Z,85.39
2018-09-04T02:04:47.994Z,85.47
2018-09-04T02:07:15.898Z,85.24
2018-09-04T02:09:43.501Z,85.11
2018-09-04T02:12:11.077Z,84.66
2018-09-04T02:14:38.626Z,84.65
2018-09-04T02:17:06.169Z,84.60
2018-09-04T02:19:33.731Z,84.28
2018-09-04T02:22:01.255Z,83.74
2018-09-04T02:24:29.074Z,84.01
2018-09-04T02:26:56.597Z,84.21
2018-09-04T02:29:24.114Z,84.84
2018-09-04T02:31:51.988Z,84.85
2018-09-04T02:34:19.594Z,84.80
2018-09-04T02:36:47.107Z,84.79
2018-09-04T02:39:14.655Z,84.72
2018-09-04T02:41:42.196Z,84.44
2018-09-04T02:44:09.803Z,83.96
2018-09-04T02:46:37.519Z,84.11
2018-09-04T02:49:05.497Z,84.13
2018-09-04T02:51:33.379Z,84.49
2018-09-04T02:54:00.969Z,84.06
2018-09-04T02:56:28.531Z,84.10
2018-09-04T02:58:56.161Z,84.37
2018-09-04T03:01:23.663Z,84.76
2018-09-04T03:03:51.183Z,84.72
2018-09-04T03:06:18.706Z,84.93
2018-09-04T03:08:46.223Z,84.37
2018-09-04T03:11:13.750Z,84.42
2018-09-04T03:13:41.292Z,84.52
2018-09-04T03:16:08.856Z,84.29
2018-09-04T03:18:36.391Z,83.76
2018-09-04T03:21:03.901Z,84.04
2018-09-04T03:23:31.762Z,84.65
2018-09-04T03:25:59.290Z,83.81
2018-09-04T03:28:26.832Z,83.17
2018-09-04T03:30:54.748Z,83.43
2018-09-04T03:33:22.259Z,83.83
2018-09-04T03:35:49.778Z,84.82
2018-09-04T03:38:18.454Z,85.29
2018-09-04T03:40:46.046Z,85.24
2018-09-04T03:43:13.623Z,84.76
2018-09-04T03:45:41.145Z,84.06
2018-09-04T03:48:09.119Z,84.47
2018-09-04T03:50:37.519Z,84.70
2018-09-04T03:53:05.062Z,85.01
2018-09-04T03:55:32.892Z,85.28
2018-09-04T03:58:00.422Z,85.13
2018-09-04T04:00:27.948Z,84.71
2018-09-04T04:02:55.771Z,85.19
2018-09-04T04:05:23.294Z,85.54
2018-09-04T04:07:50.811Z,85.21
2018-09-04T04:10:18.659Z,85.37
2018-09-04T04:12:46.179Z,84.99
2018-09-04T04:15:13.722Z,85.50
2018-09-04T04:17:41.266Z,85.84
2018-09-04T04:20:08.938Z,86.16
2018-09-04T04:22:36.957Z,86.15
2018-09-04T04:25:04.786Z,86.14
2018-09-04T04:27:32.298Z,85.83
2018-09-04T04:29:59.896Z,86.08
2018-09-04T04:32:27.503Z,86.14
2018-09-04T04:34:55.089Z,86.49
2018-09-04T04:37:22.622Z,86.93
2018-09-04T04:39:50.141Z,87.25
2018-09-04T04:42:17.661Z,87.93
2018-09-04T04:44:45.175Z,87.72
2018-09-04T04:47:12.686Z,87.57
2018-09-04T04:49:41.292Z,86.75
2018-09-04T04:52:08.835Z,86.63
2018-09-04T04:54:36.376Z,86.44
2018-09-04T04:57:03.906Z,86.10
2018-09-04T04:59:31.431Z,86.33
2018-09-04T05:01:59.246Z,86.28
2018-09-04T05:04:26.775Z,86.59
2018-09-04T05:06:54.378Z,86.75
2018-09-04T05:09:21.994Z,86.82
2018-09-04T05:11:49.542Z,86.19
2018-09-04T05:14:17.089Z,86.84
2018-09-04T05:16:44.614Z,86.34
2018-09-04T05:19:12.151Z,86.15
2018-09-04T05:21:39.735Z,86.22
2018-09-04T05:24:07.266Z,86.31
2018-09-04T05:26:34.804Z,85.93
2018-09-04T05:29:02.325Z,85.89
2018-09-04T05:31:34.536Z,85.43
2018-09-04T05:34:02.154Z,85.35
2018-09-04T05:36:29.655Z,84.73
2018-09-04T05:38:57.151Z,84.02
2018-09-04T05:41:24.647Z,83.03
2018-09-04T05:43:57.289Z,82.89
2018-09-04T05:46:34.774Z,81.85
2018-09-04T05:49:02.544Z,80.68
2018-09-04T05:51:30.046Z,78.74
2018-09-04T05:53:57.765Z,77.59
2018-09-04T05:56:25.375Z,78.05
2018-09-04T05:58:52.932Z,77.25
2018-09-04T06:01:20.522Z,76.60
2018-09-04T06:03:48.049Z,76.25
2018-09-04T06:06:15.542Z,76.54
2018-09-04T06:08:43.090Z,75.83
2018-09-04T06:11:10.605Z,75.74
2018-09-04T06:13:38.122Z,75.14
2018-09-04T06:16:05.671Z,75.12
2018-09-04T06:18:33.209Z,74.32
2018-09-04T06:21:00.738Z,74.08
2018-09-04T06:23:28.283Z,73.51
2018-09-04T06:25:55.879Z,73.29
2018-09-04T06:28:23.390Z,74.00
2018-09-04T06:30:50.990Z,74.03
2018-09-04T06:33:18.475Z,72.99
2018-09-04T06:35:45.966Z,73.94
2018-09-04T06:38:13.468Z,73.14
2018-09-04T06:40:40.964Z,71.68
2018-09-04T06:43:08.470Z,70.88
2018-09-04T06:45:35.946Z,71.72
2018-09-04T06:48:03.419Z,70.71
2018-09-04T06:50:30.963Z,70.05
2018-09-04T06:52:58.458Z,69.42
2018-09-04T06:55:25.930Z,68.23
2018-09-04T06:57:53.527Z,67.11
2018-09-04T07:00:21.049Z,65.07
2018-09-04T07:02:48.558Z,64.12
2018-09-04T07:05:16.062Z,63.48
2018-09-04T07:07:43.606Z,62.50
2018-09-04T07:10:11.155Z,60.14
2018-09-04T07:12:39.033Z,58.11
2018-09-04T07:15:06.980Z,56.82
2018-09-04T07:17:34.472Z,56.38
2018-09-04T07:20:02.028Z,56.41
2018-09-04T07:22:29.558Z,54.54
2018-09-04T07:24:57.059Z,53.00
2018-09-04T07:27:24.570Z,49.48
2018-09-04T07:29:52.094Z,47.85
2018-09-04T07:32:19.587Z,47.95
2018-09-04T07:34:47.074Z,47.83
2018-09-04T07:37:14.647Z,45.49
2018-09-04T07:39:42.141Z,44.05
2018-09-04T07:42:09.670Z,44.19
2018-09-04T07:44:37.186Z,42.80
2018-09-04T07:47:04.978Z,42.06
2018-09-04T07:49:32.467Z,41.82
2018-09-04T07:51:59.968Z,39.96
2018-09-04T07:54:27.518Z,40.83
2018-09-04T07:56:55.137Z,39.44
2018-09-04T07:59:22.639Z,37.71
2018-09-04T08:01:50.129Z,38.26
2018-09-04T08:04:17.748Z,36.83
2018-09-04T08:06:45.255Z,35.30
2018-09-04T08:09:12.770Z,35.70
2018-09-04T08:11:40.300Z,33.63
2018-09-04T08:14:07.798Z,34.10
2018-09-04T08:16:35.878Z,33.18
2018-09-04T08:19:03.403Z,34.30
2018-09-04T08:21:34.397Z,33.18
2018-09-04T08:24:02.331Z,32.95
2018-09-04T08:26:29.836Z,32.82
2018-09-04T08:28:57.382Z,32.94
2018-09-04T08:31:24.915Z,32.83
2018-09-04T08:33:52.452Z,32.77
2018-09-04T08:36:19.968Z,32.51
2018-09-04T08:38:48.297Z,31.98
2018-09-04T08:41:15.807Z,30.02
2018-09-04T08:43:43.374Z,31.43
2018-09-04T08:46:10.912Z,30.53
2018-09-04T08:48:38.448Z,30.83
2018-09-04T08:51:06.049Z,30.97
2018-09-04T08:53:33.723Z,33.26
2018-09-04T08:56:01.206Z,37.75
2018-09-04T09:01:25.564Z,43.95
2018-09-04T09:03:53.238Z,42.65
2018-09-04T09:06:20.722Z,43.94
2018-09-04T09:08:48.391Z,42.98
2018-09-04T09:11:15.959Z,43.91
2018-09-04T09:13:43.514Z,44.38
2018-09-04T09:16:11.119Z,45.26
2018-09-04T09:18:38.637Z,44.99
2018-09-04T09:21:06.158Z,45.61
2018-09-04T09:23:33.708Z,45.14
2018-09-04T09:26:01.273Z,45.72
2018-09-04T09:28:28.814Z,46.37
2018-09-04T09:30:56.522Z,48.84
2018-09-04T09:33:24.073Z,49.04
2018-09-04T09:35:51.713Z,49.43
2018-09-04T09:38:19.331Z,48.06
2018-09-04T09:40:46.892Z,47.62
2018-09-04T09:43:14.466Z,47.45
2018-09-04T09:45:42.034Z,44.66
2018-09-04T09:48:09.651Z,41.97
2018-09-04T09:50:37.216Z,38.16
2018-09-04T09:53:04.921Z,36.99
2018-09-04T09:55:32.394Z,35.84
2018-09-04T09:57:59.961Z,35.67
2018-09-04T10:00:33.209Z,33.99
2018-09-04T10:03:08.436Z,33.70
2018-09-04T10:05:36.086Z,34.43
2018-09-04T10:08:03.725Z,34.67
2018-09-04T10:10:31.200Z,33.80
2018-09-04T10:12:58.743Z,35.09
2018-09-04T10:15:26.371Z,37.42
2018-09-04T10:17:54.313Z,38.24
2018-09-04T10:20:21.870Z,36.18
2018-09-04T10:22:49.463Z,35.54
2018-09-04T10:25:17.014Z,35.27
2018-09-04T10:27:44.556Z,33.67
2018-09-04T10:30:13.762Z,32.85
2018-09-04T10:32:50.109Z,35.82
2018-09-04T10:35:17.879Z,34.24
2018-09-04T10:37:45.439Z,36.38
2018-09-04T10:40:18.462Z,35.95
2018-09-04T10:42:46.011Z,34.36
2018-09-04T10:45:19.352Z,35.71
2018-09-04T10:47:46.952Z,35.58
2018-09-04T10:50:14.494Z,34.91
2018-09-04T10:52:42.014Z,34.42
2018-09-04T10:55:09.638Z,34.29
2018-09-04T10:57:37.229Z,34.10
2018-09-04T11:00:04.961Z,33.54
2018-09-04T11:02:32.551Z,35.10
2018-09-04T11:05:00.214Z,36.23
2018-09-04T11:07:27.744Z,37.20
2018-09-04T11:09:55.453Z,36.96
2018-09-04T11:12:23.138Z,37.99
2018-09-04T11:14:50.742Z,37.37
2018-09-04T11:17:18.326Z,37.33
2018-09-04T11:19:45.910Z,37.28
2018-09-04T11:22:13.505Z,37.67
2018-09-04T11:24:41.034Z,36.01
2018-09-04T11:27:08.574Z,35.62
2018-09-04T11:29:36.163Z,36.34
2018-09-04T11:32:03.746Z,38.85
2018-09-04T11:34:31.626Z,38.40
2018-09-04T11:36:59.198Z,39.40
2018-09-04T11:39:26.738Z,38.40
2018-09-04T11:41:54.258Z,38.34
2018-09-04T11:44:21.812Z,38.62
2018-09-04T11:46:49.440Z,39.25
2018-09-04T11:49:16.990Z,39.33
2018-09-04T11:51:44.642Z,41.05
2018-09-04T11:54:12.223Z,40.41
2018-09-04T11:56:40.462Z,38.36
2018-09-04T11:59:08.258Z,38.24
2018-09-04T12:01:37.410Z,38.15
2018-09-04T12:04:05.198Z,40.54
2018-09-04T12:06:32.756Z,39.81
2018-09-04T12:09:00.325Z,39.58
2018-09-04T12:11:27.875Z,39.35
2018-09-04T12:13:55.427Z,39.63
2018-09-04T12:16:22.978Z,40.87
2018-09-04T12:18:50.539Z,39.66
2018-09-04T12:21:18.211Z,39.37
2018-09-04T12:23:45.711Z,39.58
2018-09-04T12:26:13.230Z,39.46
2018-09-04T12:28:40.747Z,39.45
2018-09-04T12:31:08.794Z,38.89
2018-09-04T12:33:36.290Z,38.62
2018-09-04T12:36:04.153Z,37.85
2018-09-04T12:38:34.088Z,38.90
2018-09-04T12:41:06.661Z,38.35
2018-09-04T12:43:35.459Z,39.41
2018-09-04T12:46:02.923Z,39.74
2018-09-04T12:48:31.096Z,39.40
2018-09-04T12:50:59.748Z,39.60
2018-09-04T12:53:27.970Z,38.80
2018-09-04T12:55:55.542Z,39.81
2018-09-04T12:58:23.046Z,41.23
2018-09-04T13:00:51.776Z,40.39
2018-09-04T13:03:21.635Z,41.99
2018-09-04T13:05:49.207Z,41.48
2018-09-04T13:08:17.850Z,41.29
2018-09-04T13:10:45.426Z,42.77
2018-09-04T13:13:12.966Z,41.72
2018-09-04T13:15:42.558Z,42.50
2018-09-04T13:18:10.062Z,42.22
2018-09-04T13:20:37.534Z,41.16
2018-09-04T13:23:05.276Z,42.26
2018-09-04T13:25:32.751Z,42.55
2018-09-04T13:28:00.266Z,42.11
2018-09-04T13:30:27.875Z,41.89
2018-09-04T13:32:55.430Z,42.79
2018-09-04T13:35:22.945Z,43.05
2018-09-04T13:37:50.485Z,43.03
2018-09-04T13:40:18.063Z,43.33
2018-09-04T13:42:45.663Z,42.82
2018-09-04T13:45:13.227Z,41.41
2018-09-04T13:47:40.814Z,43.96
2018-09-04T13:50:08.424Z,43.63
2018-09-04T13:52:35.957Z,42.41
2018-09-04T13:55:03.511Z,42.07
2018-09-04T13:57:31.011Z,43.97
2018-09-04T13:59:58.525Z,43.60
2018-09-04T14:02:26.326Z,44.09
2018-09-04T14:04:53.843Z,43.06
2018-09-04T14:07:21.665Z,43.46
2018-09-04T14:09:49.172Z,43.23
2018-09-04T14:12:16.659Z,43.62
2018-09-04T14:14:44.161Z,43.58
2018-09-04T14:17:14.686Z,44.16
2018-09-04T14:19:42.187Z,44.34
2018-09-04T14:22:09.685Z,45.39
2018-09-04T14:24:37.206Z,45.01
2018-09-04T14:27:04.841Z,46.39
2018-09-04T14:32:00.307Z,45.45
2018-09-04T14:34:27.898Z,44.39
2018-09-04T14:36:55.655Z,45.59
2018-09-04T14:39:23.223Z,46.10
2018-09-04T14:41:50.750Z,45.88
2018-09-04T14:44:18.300Z,47.16
2018-09-04T14:46:46.236Z,47.08
2018-09-04T14:49:14.456Z,47.64
2018-09-04T14:51:42.300Z,48.42
2018-09-04T14:56:07.487Z,48.03
2018-09-04T14:58:35.100Z,48.64
2018-09-04T15:01:02.645Z,48.83
2018-09-04T15:03:30.192Z,49.26
2018-09-04T15:05:57.748Z,50.35
2018-09-04T15:08:25.208Z,50.63
2018-09-04T15:10:52.726Z,50.72
2018-09-04T15:13:20.255Z,50.63
2018-09-04T15:15:47.895Z,50.19
2018-09-04T15:18:15.342Z,49.15
2018-09-04T15:20:43.225Z,49.40
2018-09-04T15:23:10.809Z,49.09
2018-09-04T15:25:38.571Z,50.14
2018-09-04T15:28:06.074Z,50.33
2018-09-04T15:30:33.571Z,50.27
2018-09-04T15:33:01.354Z,50.60
2018-09-04T15:35:28.906Z,51.74
2018-09-04T15:37:56.440Z,51.23
2018-09-04T15:40:23.911Z,51.63
2018-09-04T15:42:51.496Z,50.17
2018-09-04T15:45:19.331Z,51.02
2018-09-04T15:47:46.945Z,51.40
2018-09-04T15:50:14.454Z,51.39
2018-09-04T15:52:41.967Z,51.40
2018-09-04T15:55:09.769Z,50.53
2018-09-04T15:57:37.264Z,50.39
2018-09-04T16:00:04.830Z,50.92
2018-09-04T16:02:32.470Z,51.33
2018-09-04T16:04:59.972Z,50.28
2018-09-04T16:07:27.439Z,50.79
2018-09-04T16:09:56.199Z,50.33
2018-09-04T16:12:23.632Z,50.71
2018-09-04T16:14:51.355Z,50.82
2018-09-04T16:17:18.880Z,50.56
2018-09-04T16:19:47.028Z,50.04
2018-09-04T16:22:15.631Z,50.58
2018-09-04T16:24:43.246Z,50.88
2018-09-04T16:27:10.895Z,50.32
2018-09-04T16:29:38.863Z,50.97
2018-09-04T16:32:06.855Z,50.25
2018-09-04T16:34:34.636Z,50.23
2018-09-04T16:37:02.260Z,49.35
2018-09-04T16:39:30.812Z,49.10
2018-09-04T16:41:58.338Z,48.96
2018-09-04T16:44:25.863Z,49.91
2018-09-04T16:46:53.391Z,50.00
2018-09-04T16:49:24.776Z,49.90
2018-09-04T16:51:52.277Z,49.15
2018-09-04T16:54:20.863Z,49.25
2018-09-04T16:56:48.395Z,49.42
2018-09-04T16:59:15.908Z,48.70
2018-09-04T17:01:43.817Z,49.38
2018-09-04T17:04:11.327Z,49.52
2018-09-04T17:06:38.851Z,48.81
2018-09-04T17:09:06.834Z,48.84
2018-09-04T17:11:34.476Z,48.46
2018-09-04T17:14:01.975Z,48.50
2018-09-04T17:16:29.529Z,48.40
2018-09-04T17:18:57.088Z,49.09
2018-09-04T17:21:24.589Z,50.19
2018-09-04T17:23:52.081Z,50.68
2018-09-04T17:26:19.586Z,51.24
2018-09-04T17:28:47.151Z,51.64
2018-09-04T17:31:14.707Z,52.86
2018-09-04T17:33:42.267Z,52.82
2018-09-04T17:36:09.798Z,53.55
2018-09-04T17:38:37.307Z,54.03
2018-09-04T17:41:04.856Z,53.95
2018-09-04T17:43:32.454Z,54.77
2018-09-04T17:46:00.031Z,55.39
2018-09-04T17:48:27.583Z,56.00
2018-09-04T17:50:55.122Z,56.28
2018-09-04T17:53:22.626Z,56.18
2018-09-04T17:55:50.127Z,57.35
2018-09-04T17:58:17.926Z,57.74
2018-09-04T18:00:45.485Z,57.64
2018-09-04T18:03:13.111Z,57.59
2018-09-04T18:05:40.789Z,58.01
2018-09-04T18:08:08.320Z,57.93
2018-09-04T18:10:35.999Z,57.36
2018-09-04T18:13:03.495Z,57.47
2018-09-04T18:15:31.000Z,58.29
2018-09-04T18:17:59.531Z,59.09
2018-09-04T18:20:27.092Z,59.27
2018-09-04T18:22:54.611Z,58.13
2018-09-04T18:25:22.210Z,58.57
2018-09-04T18:27:49.721Z,58.72
2018-09-04T18:30:17.801Z,59.32
2018-09-04T18:32:45.320Z,59.62
2018-09-04T18:35:12.838Z,58.19
2018-09-04T18:37:40.360Z,58.50
2018-09-04T18:40:07.871Z,59.61
2018-09-04T18:42:35.438Z,59.76
2018-09-04T18:45:03.041Z,60.19
2018-09-04T18:47:30.600Z,61.02
2018-09-04T18:49:58.142Z,61.21
2018-09-04T18:52:25.706Z,61.75
2018-09-04T18:54:53.225Z,62.40
2018-09-04T18:57:20.738Z,62.20
2018-09-04T18:59:48.314Z,62.43
2018-09-04T19:02:15.891Z,64.03
2018-09-04T19:04:43.414Z,64.05
2018-09-04T19:07:10.953Z,64.27
2018-09-04T19:09:38.487Z,64.82
2018-09-04T19:12:06.098Z,65.39
2018-09-04T19:14:33.692Z,65.78
2018-09-04T19:17:01.256Z,65.42
2018-09-04T19:19:28.949Z,66.71
2018-09-04T19:21:56.512Z,67.03
2018-09-04T19:24:24.146Z,68.09
2018-09-04T19:26:51.680Z,67.88
2018-09-04T19:29:19.198Z,67.43
2018-09-04T19:31:46.785Z,67.02
2018-09-04T19:34:14.357Z,66.43
2018-09-04T19:36:41.871Z,66.36
2018-09-04T19:39:10.038Z,67.37
2018-09-04T19:41:37.810Z,68.07
2018-09-04T19:44:05.382Z,67.91
2018-09-04T19:46:32.936Z,67.58
2018-09-04T19:49:00.515Z,67.26
2018-09-04T19:51:27.985Z,67.49
2018-09-04T19:53:55.462Z,68.38
2018-09-04T19:56:23.067Z,68.17
2018-09-04T19:58:50.659Z,69.05
2018-09-04T20:01:18.231Z,69.53
2018-09-04T20:03:45.799Z,69.78
2018-09-04T20:06:13.419Z,70.19
2018-09-04T20:08:41.114Z,69.65
2018-09-04T20:11:08.640Z,69.84
2018-09-04T20:13:36.136Z,69.95
2018-09-04T20:16:03.708Z,69.54
2018-09-04T20:18:31.227Z,69.67
2018-09-04T20:20:58.756Z,70.22
2018-09-04T20:23:26.332Z,70.49
2018-09-04T20:25:53.823Z,70.70
2018-09-04T20:28:21.554Z,71.05
2018-09-04T20:30:49.119Z,71.06
2018-09-04T20:33:16.640Z,71.61
2018-09-04T20:35:44.230Z,71.66
2018-09-04T20:38:11.758Z,71.10
2018-09-04T20:40:39.250Z,71.89
2018-09-04T20:43:06.873Z,71.35
2018-09-04T20:45:34.426Z,71.35
2018-09-04T20:48:01.932Z,71.22
2018-09-04T20:50:29.481Z,71.92
2018-09-04T20:52:56.990Z,71.61
2018-09-04T20:55:24.572Z,72.71
2018-09-04T20:57:57.877Z,72.55
2018-09-04T21:00:31.136Z,73.11
2018-09-04T21:03:04.291Z,73.62
2018-09-04T21:05:37.407Z,73.30
2018-09-04T21:08:15.042Z,73.82
2018-09-04T21:10:42.972Z,73.71
2018-09-04T21:13:11.360Z,73.96
2018-09-04T21:15:38.988Z,74.19
2018-09-04T21:18:06.646Z,74.63
2018-09-04T21:20:34.151Z,73.67
2018-09-04T21:23:01.732Z,73.41
2018-09-04T21:25:29.338Z,74.05
2018-09-04T21:27:56.867Z,74.05
2018-09-04T21:30:24.463Z,73.79
2018-09-04T21:32:51.982Z,73.76
2018-09-04T21:35:19.774Z,74.02
2018-09-04T21:37:47.361Z,74.04
2018-09-04T21:40:14.858Z,73.79
2018-09-04T21:42:42.596Z,73.77
2018-09-04T21:45:10.127Z,74.51
2018-09-04T21:47:37.649Z,73.77
2018-09-04T21:50:05.526Z,73.60
2018-09-04T21:52:33.029Z,74.38
2018-09-04T21:55:00.552Z,74.37
2018-09-04T21:57:28.027Z,74.27
2018-09-04T21:59:55.574Z,73.82
2018-09-04T22:02:23.106Z,74.08
2018-09-04T22:04:50.770Z,74.42
2018-09-04T22:07:18.274Z,74.80
2018-09-04T22:09:45.767Z,75.15
2018-09-04T22:12:13.275Z,75.52
2018-09-04T22:14:41.074Z,75.57
2018-09-04T22:17:08.596Z,75.72
2018-09-04T22:19:36.126Z,75.92
2018-09-04T22:22:03.714Z,76.36
2018-09-04T22:24:33.646Z,76.50
2018-09-04T22:27:04.066Z,76.46
2018-09-04T22:29:32.048Z,76.66
2018-09-04T22:31:59.685Z,76.55
2018-09-04T22:34:27.230Z,76.99
2018-09-04T22:36:54.690Z,77.53
2018-09-04T22:39:22.262Z,78.04
2018-09-04T22:41:49.742Z,78.21
2018-09-04T22:44:17.321Z,78.56
2018-09-04T22:46:44.820Z,78.47
2018-09-04T22:49:12.350Z,78.77
2018-09-04T22:51:39.826Z,79.25
2018-09-04T22:54:07.649Z,78.97
2018-09-04T22:56:35.811Z,78.81
2018-09-04T22:59:03.436Z,78.84
2018-09-04T23:01:31.422Z,78.65
2018-09-04T23:03:58.926Z,79.07
2018-09-04T23:06:26.429Z,78.62
2018-09-04T23:08:53.935Z,78.77
2018-09-04T23:11:21.419Z,78.61
2018-09-04T23:13:49.263Z,78.66
2018-09-04T23:16:16.770Z,78.98
2018-09-04T23:18:44.290Z,78.88
2018-09-04T23:21:11.810Z,79.22
2018-09-04T23:23:39.290Z,79.41
2018-09-04T23:26:06.790Z,79.90
2018-09-04T23:28:34.275Z,79.88
2018-09-04T23:31:01.774Z,80.19
2018-09-04T23:33:30.284Z,80.44
2018-09-04T23:35:58.614Z,79.69
2018-09-04T23:38:26.140Z,80.04
2018-09-04T23:40:53.643Z,79.75
2018-09-04T23:43:21.113Z,79.65
2018-09-04T23:45:48.625Z,79.72
2018-09-04T23:48:16.222Z,80.12
2018-09-04T23:50:43.765Z,80.20
2018-09-04T23:53:11.231Z,79.92
2018-09-04T23:55:38.771Z,80.44
2018-09-04T23:58:06.365Z,80.03
